createdAt,value
2018-11-23T00:01:10.962Z,87.10
2018-11-23T00:03:41.327Z,87.06
2018-11-23T00:06:11.629Z,87.47
2018-11-23T00:08:59.013Z,87.19
2018-11-23T00:11:29.211Z,87.31
2018-11-23T00:13:59.459Z,86.91
2018-11-23T00:16:29.865Z,87.28
2018-11-23T00:19:00.202Z,87.40
2018-11-23T00:21:30.512Z,87.18
2018-11-23T00:24:00.903Z,87.12
2018-11-23T00:26:31.441Z,87.23
2018-11-23T00:29:01.945Z,87.17
2018-11-23T00:31:33.870Z,87.48
2018-11-23T00:34:05.122Z,87.33
2018-11-23T00:36:36.408Z,87.08
2018-11-23T00:39:07.385Z,87.10
2018-11-23T00:41:37.665Z,87.37
2018-11-23T00:44:08.775Z,87.57
2018-11-23T00:46:39.814Z,87.33
2018-11-23T00:49:09.993Z,87.78
2018-11-23T00:51:40.335Z,87.39
2018-11-23T00:54:14.116Z,86.74
2018-11-23T00:56:44.492Z,86.77
2018-11-23T00:59:14.811Z,87.16
2018-11-23T01:01:50.385Z,86.79
2018-11-23T01:04:21.260Z,86.52
2018-11-23T01:06:52.087Z,86.43
2018-11-23T01:09:22.544Z,86.78
2018-11-23T01:11:53.650Z,86.71
2018-11-23T01:14:23.892Z,87.10
2018-11-23T01:16:54.359Z,86.59
2018-11-23T01:19:25.035Z,86.65
2018-11-23T01:21:55.534Z,87.08
2018-11-23T01:24:25.871Z,87.30
2018-11-23T01:26:57.335Z,87.94
2018-11-23T01:29:27.790Z,88.17
2018-11-23T01:31:58.148Z,88.06
2018-11-23T01:34:28.343Z,88.11
2018-11-23T01:36:59.036Z,88.14
2018-11-23T01:39:29.258Z,87.92
2018-11-23T01:41:59.520Z,87.84
2018-11-23T01:44:30.237Z,87.90
2018-11-23T01:47:02.741Z,87.58
2018-11-23T01:49:33.264Z,87.98
2018-11-23T01:52:04.223Z,88.21
2018-11-23T01:54:34.676Z,87.86
2018-11-23T01:57:06.086Z,87.97
2018-11-23T01:59:36.443Z,88.37
2018-11-23T02:02:07.403Z,88.50
2018-11-23T02:04:38.629Z,88.09
2018-11-23T02:07:09.014Z,87.96
2018-11-23T02:09:39.331Z,88.15
2018-11-23T02:14:45.816Z,88.20
2018-11-23T02:17:16.064Z,87.85
2018-11-23T02:19:47.660Z,88.25
2018-11-23T02:22:17.999Z,87.80
2018-11-23T02:24:48.389Z,88.16
2018-11-23T02:27:19.032Z,88.44
2018-11-23T02:29:50.214Z,88.12
2018-11-23T02:32:20.434Z,88.80
2018-11-23T02:34:50.790Z,88.38
2018-11-23T02:37:21.126Z,88.87
2018-11-23T02:39:51.560Z,88.77
2018-11-23T02:42:22.138Z,88.80
2018-11-23T02:44:54.184Z,88.84
2018-11-23T02:47:24.641Z,88.75
2018-11-23T02:49:56.055Z,88.84
2018-11-23T02:52:27.083Z,88.32
2018-11-23T02:54:57.998Z,88.67
2018-11-23T02:57:28.194Z,88.25
2018-11-23T02:59:59.350Z,88.62
2018-11-23T03:02:29.676Z,88.84
2018-11-23T03:05:00.315Z,88.67
2018-11-23T03:07:30.782Z,88.90
2018-11-23T03:10:01.100Z,88.92
2018-11-23T03:12:31.580Z,88.82
2018-11-23T03:15:02.099Z,88.93
2018-11-23T03:17:32.334Z,88.78
2018-11-23T03:20:02.748Z,88.83
2018-11-23T03:22:33.085Z,89.28
2018-11-23T03:25:03.385Z,89.18
2018-11-23T03:27:33.744Z,89.30
2018-11-23T03:30:07.774Z,89.39
2018-11-23T03:32:38.170Z,89.16
2018-11-23T03:35:08.569Z,89.05
2018-11-23T03:37:38.839Z,89.47
2018-11-23T03:42:45.234Z,89.57
2018-11-23T03:45:16.126Z,89.77
2018-11-23T03:47:47.208Z,89.36
2018-11-23T03:50:18.222Z,89.43
2018-11-23T03:52:49.154Z,89.68
2018-11-23T03:55:19.439Z,89.77
2018-11-23T03:57:49.837Z,89.40
2018-11-23T04:00:22.559Z,89.61
2018-11-23T04:02:54.375Z,89.65
2018-11-23T04:05:24.588Z,89.58
2018-11-23T04:07:56.240Z,89.09
2018-11-23T04:10:26.673Z,89.69
2018-11-23T04:12:56.997Z,89.34
2018-11-23T04:15:27.363Z,89.55
2018-11-23T04:17:57.682Z,89.69
2018-11-23T04:20:28.317Z,89.45
2018-11-23T04:22:59.264Z,89.53
2018-11-23T04:25:34.347Z,89.49
2018-11-23T04:28:05.747Z,89.30
2018-11-23T04:30:36.623Z,89.42
2018-11-23T04:33:07.661Z,89.85
2018-11-23T04:35:38.044Z,89.70
2018-11-23T04:38:08.581Z,89.56
2018-11-23T04:40:38.810Z,89.27
2018-11-23T04:43:09.775Z,89.40
2018-11-23T04:45:40.384Z,89.80
2018-11-23T04:48:10.631Z,89.86
2018-11-23T04:50:41.458Z,90.01
2018-11-23T04:53:11.843Z,90.05
2018-11-23T04:55:42.024Z,90.19
2018-11-23T04:58:12.505Z,90.24
2018-11-23T05:00:46.118Z,90.20
2018-11-23T05:03:16.663Z,90.16
2018-11-23T05:05:46.966Z,90.24
2018-11-23T05:08:17.712Z,90.64
2018-11-23T05:10:47.981Z,90.44
2018-11-23T05:13:18.510Z,90.28
2018-11-23T05:15:49.012Z,90.54
2018-11-23T05:18:20.213Z,90.44
2018-11-23T05:20:50.579Z,90.67
2018-11-23T05:23:21.088Z,90.79
2018-11-23T05:25:52.641Z,90.50
2018-11-23T05:28:23.027Z,90.47
2018-11-23T05:30:53.423Z,90.58
2018-11-23T05:33:23.828Z,90.74
2018-11-23T05:35:54.296Z,90.66
2018-11-23T05:41:00.424Z,90.29
2018-11-23T05:43:30.802Z,90.32
2018-11-23T05:46:02.320Z,90.03
2018-11-23T05:48:33.566Z,90.10
2018-11-23T05:51:04.615Z,89.96
2018-11-23T05:53:35.064Z,89.97
2018-11-23T05:56:06.240Z,90.13
2018-11-23T05:58:36.527Z,90.01
2018-11-23T06:01:06.792Z,90.25
2018-11-23T06:03:37.192Z,90.39
2018-11-23T06:06:07.753Z,90.23
2018-11-23T06:08:40.651Z,89.94
2018-11-23T06:11:11.044Z,90.13
2018-11-23T06:13:41.406Z,89.83
2018-11-23T06:16:11.712Z,89.97
2018-11-23T06:18:41.897Z,89.90
2018-11-23T06:21:12.405Z,90.09
2018-11-23T06:23:42.678Z,89.97
2018-11-23T06:26:18.927Z,89.68
2018-11-23T06:28:49.778Z,89.86
2018-11-23T06:31:20.492Z,89.85
2018-11-23T06:33:51.015Z,89.72
2018-11-23T06:36:21.546Z,90.03
2018-11-23T06:38:51.948Z,90.41
2018-11-23T06:41:22.285Z,90.01
2018-11-23T06:43:53.384Z,89.93
2018-11-23T06:46:24.305Z,89.93
2018-11-23T06:48:54.831Z,89.92
2018-11-23T06:51:25.772Z,90.13
2018-11-23T06:53:56.554Z,89.97
2018-11-23T06:56:26.818Z,90.12
2018-11-23T06:58:57.060Z,89.83
2018-11-23T07:01:27.561Z,89.68
2018-11-23T07:03:58.671Z,89.95
2018-11-23T07:09:08.147Z,89.97
2018-11-23T07:11:39.128Z,89.60
2018-11-23T07:14:09.368Z,89.90
2018-11-23T07:16:40.430Z,89.48
2018-11-23T07:19:11.695Z,89.92
2018-11-23T07:21:42.007Z,89.71
2018-11-23T07:24:12.635Z,89.90
2018-11-23T07:26:43.309Z,89.89
2018-11-23T07:29:13.841Z,89.40
2018-11-23T07:31:50.946Z,89.32
2018-11-23T07:34:22.885Z,89.14
2018-11-23T07:36:51.956Z,88.98
2018-11-23T07:39:33.380Z,88.94
2018-11-23T07:42:18.554Z,88.61
2018-11-23T07:47:25.070Z,88.37
2018-11-23T07:49:55.563Z,88.25
2018-11-23T07:52:27.039Z,88.43
2018-11-23T07:54:57.354Z,88.23
2018-11-23T07:57:27.823Z,87.84
2018-11-23T07:59:58.188Z,87.60
2018-11-23T08:02:28.413Z,87.19
2018-11-23T08:05:01.756Z,87.22
2018-11-23T08:07:32.335Z,87.28
2018-11-23T08:10:02.072Z,87.01
2018-11-23T08:12:32.305Z,87.05
2018-11-23T08:15:02.580Z,87.09
2018-11-23T08:17:33.613Z,87.13
2018-11-23T08:20:03.878Z,87.39
2018-11-23T08:22:34.306Z,87.31
2018-11-23T08:25:05.750Z,87.30
2018-11-23T08:30:21.913Z,86.89
2018-11-23T08:32:52.310Z,86.47
2018-11-23T08:35:22.923Z,86.50
2018-11-23T08:37:53.544Z,86.19
2018-11-23T08:40:25.688Z,86.19
2018-11-23T08:42:56.505Z,86.35
2018-11-23T08:45:27.661Z,85.82
2018-11-23T08:47:58.134Z,86.22
2018-11-23T08:50:29.771Z,86.38
2018-11-23T08:53:00.174Z,86.08
2018-11-23T08:55:31.051Z,86.19
2018-11-23T08:58:01.539Z,85.69
2018-11-23T09:00:31.966Z,86.24
2018-11-23T09:03:03.598Z,86.14
2018-11-23T09:05:34.368Z,86.14
2018-11-23T09:08:05.306Z,86.21
2018-11-23T09:10:35.514Z,86.60
2018-11-23T09:13:05.850Z,86.54
2018-11-23T09:15:36.277Z,86.60
2018-11-23T09:18:06.936Z,86.45
2018-11-23T09:20:38.101Z,86.66
2018-11-23T09:23:08.428Z,86.76
2018-11-23T09:25:38.640Z,86.34
2018-11-23T09:28:09.316Z,87.36
2018-11-23T09:30:39.789Z,86.74
2018-11-23T09:33:11.026Z,86.05
2018-11-23T09:35:41.458Z,86.55
2018-11-23T09:38:11.816Z,86.53
2018-11-23T09:40:42.214Z,86.43
2018-11-23T09:43:12.449Z,87.07
2018-11-23T09:45:42.823Z,86.47
2018-11-23T09:48:13.411Z,86.69
2018-11-23T09:50:43.661Z,86.25
2018-11-23T09:53:18.088Z,86.10
2018-11-23T09:55:48.410Z,85.87
2018-11-23T09:58:18.661Z,85.43
2018-11-23T10:00:49.195Z,85.64
2018-11-23T10:03:23.610Z,85.65
2018-11-23T10:05:54.336Z,85.55
2018-11-23T10:08:24.602Z,85.70
2018-11-23T10:10:55.800Z,86.23
2018-11-23T10:13:26.004Z,86.27
2018-11-23T10:15:57.075Z,86.12
2018-11-23T10:18:27.294Z,86.05
2018-11-23T10:20:58.023Z,85.70
2018-11-23T10:23:28.361Z,86.06
2018-11-23T10:25:58.943Z,85.49
2018-11-23T10:28:29.284Z,85.92
2018-11-23T10:31:00.222Z,86.65
2018-11-23T10:33:30.600Z,86.29
2018-11-23T10:36:00.889Z,86.57
2018-11-23T10:38:31.681Z,86.80
2018-11-23T10:41:02.293Z,87.09
2018-11-23T10:43:33.163Z,87.11
2018-11-23T10:46:03.673Z,87.04
2018-11-23T10:48:34.215Z,87.22
2018-11-23T10:51:05.721Z,87.10
2018-11-23T10:53:35.938Z,87.50
2018-11-23T10:58:46.290Z,86.64
2018-11-23T11:01:22.570Z,86.19
2018-11-23T11:03:58.003Z,86.93
2018-11-23T11:06:33.821Z,86.74
2018-11-23T11:09:07.087Z,86.28
2018-11-23T11:11:37.766Z,86.55
2018-11-23T11:14:08.448Z,86.41
2018-11-23T11:16:38.700Z,86.25
2018-11-23T11:19:09.652Z,85.90
2018-11-23T11:21:43.937Z,85.72
2018-11-23T11:24:14.715Z,85.37
2018-11-23T11:26:45.572Z,84.87
2018-11-23T11:29:16.533Z,85.01
2018-11-23T11:31:46.843Z,85.07
2018-11-23T11:34:17.276Z,84.52
2018-11-23T11:36:48.010Z,84.84
2018-11-23T11:39:18.305Z,84.75
2018-11-23T11:41:48.554Z,84.85
2018-11-23T11:44:18.815Z,84.52
2018-11-23T11:46:49.106Z,85.01
2018-11-23T11:49:22.893Z,84.71
2018-11-23T11:51:53.519Z,84.92
2018-11-23T11:54:24.260Z,84.97
2018-11-23T11:56:54.760Z,84.84
2018-11-23T11:59:25.954Z,84.81
2018-11-23T12:01:56.361Z,85.19
2018-11-23T12:04:26.875Z,85.27
2018-11-23T12:06:57.384Z,84.98
2018-11-23T12:09:27.623Z,84.81
2018-11-23T12:11:57.908Z,84.83
2018-11-23T12:14:28.288Z,85.13
2018-11-23T12:16:58.590Z,85.26
2018-11-23T12:19:28.802Z,85.20
2018-11-23T12:21:58.993Z,85.23
2018-11-23T12:24:30.585Z,85.55
2018-11-23T12:27:07.517Z,85.33
2018-11-23T12:29:37.811Z,85.04
2018-11-23T12:32:08.286Z,84.88
2018-11-23T12:34:38.712Z,85.28
2018-11-23T12:37:09.895Z,85.36
2018-11-23T12:39:40.923Z,85.62
2018-11-23T12:42:11.363Z,85.90
2018-11-23T12:44:45.694Z,85.81
2018-11-23T12:47:16.404Z,86.07
2018-11-23T12:49:46.999Z,86.21
2018-11-23T12:52:17.915Z,86.50
2018-11-23T12:54:48.366Z,86.50
2018-11-23T12:57:19.020Z,86.29
2018-11-23T12:59:49.321Z,86.46
2018-11-23T13:02:22.575Z,86.53
2018-11-23T13:04:53.279Z,86.89
2018-11-23T13:07:23.544Z,86.58
2018-11-23T13:09:54.392Z,86.90
2018-11-23T13:12:24.810Z,87.14
2018-11-23T13:14:55.235Z,86.92
2018-11-23T13:17:25.619Z,87.13
2018-11-23T13:19:56.682Z,86.90
2018-11-23T13:22:27.573Z,87.26
2018-11-23T13:24:57.865Z,86.64
2018-11-23T13:27:28.333Z,87.37
2018-11-23T13:29:58.597Z,87.44
2018-11-23T13:32:28.899Z,87.06
2018-11-23T13:34:59.347Z,87.25
2018-11-23T13:37:29.584Z,87.16
2018-11-23T13:39:59.842Z,87.09
2018-11-23T13:42:30.291Z,87.06
2018-11-23T13:45:00.797Z,86.74
2018-11-23T13:47:36.531Z,87.27
2018-11-23T13:50:15.042Z,87.51
2018-11-23T13:52:51.738Z,87.49
2018-11-23T13:55:27.744Z,86.92
2018-11-23T13:58:03.142Z,87.41
2018-11-23T14:00:39.669Z,86.91
2018-11-23T14:03:15.257Z,87.07
2018-11-23T14:05:51.533Z,87.09
2018-11-23T14:08:31.183Z,87.49
2018-11-23T14:11:01.515Z,87.95
2018-11-23T14:13:31.482Z,87.96
2018-11-23T14:16:01.602Z,87.67
2018-11-23T14:18:31.770Z,88.10
2018-11-23T14:21:02.423Z,87.88
2018-11-23T14:23:32.477Z,87.80
2018-11-23T14:26:02.771Z,88.30
2018-11-23T14:28:32.717Z,87.96
2018-11-23T14:31:03.478Z,88.50
2018-11-23T14:33:33.589Z,88.54
2018-11-23T14:36:04.186Z,88.24
2018-11-23T14:38:34.450Z,88.51
2018-11-23T14:41:05.524Z,88.09
2018-11-23T14:43:35.561Z,88.49
2018-11-23T14:46:05.640Z,88.26
2018-11-23T14:48:36.071Z,88.15
2018-11-23T14:51:07.054Z,88.38
2018-11-23T14:53:37.381Z,88.16
2018-11-23T14:56:07.591Z,88.09
2018-11-23T14:58:38.830Z,88.46
2018-11-23T15:01:09.447Z,88.52
2018-11-23T15:03:39.692Z,88.70
2018-11-23T15:06:09.750Z,88.62
2018-11-23T15:08:40.302Z,88.58
2018-11-23T15:11:10.409Z,88.58
2018-11-23T15:13:40.694Z,88.58
2018-11-23T15:16:10.806Z,88.75
2018-11-23T15:18:40.856Z,88.32
2018-11-23T15:21:10.916Z,88.27
2018-11-23T15:23:41.211Z,88.73
2018-11-23T15:26:11.363Z,88.29
2018-11-23T15:28:41.519Z,88.16
2018-11-23T15:31:11.770Z,88.45
2018-11-23T15:33:41.852Z,88.65
2018-11-23T15:36:12.312Z,88.18
2018-11-23T15:38:42.860Z,88.26
2018-11-23T15:41:12.966Z,88.67
2018-11-23T15:43:43.415Z,88.45
2018-11-23T15:46:14.663Z,88.43
2018-11-23T15:48:44.864Z,88.86
2018-11-23T15:51:15.308Z,89.66
2018-11-23T15:53:46.143Z,89.23
2018-11-23T15:56:16.478Z,89.38
2018-11-23T15:58:46.512Z,89.13
2018-11-23T16:01:16.901Z,89.01
2018-11-23T16:03:47.445Z,89.17
2018-11-23T16:06:17.663Z,88.92
2018-11-23T16:08:47.616Z,88.65
2018-11-23T16:11:17.962Z,88.88
2018-11-23T16:13:48.472Z,88.96
2018-11-23T16:16:18.554Z,88.73
2018-11-23T16:18:48.522Z,88.53
2018-11-23T16:21:18.815Z,88.89
2018-11-23T16:23:49.985Z,88.90
2018-11-23T16:26:20.153Z,88.67
2018-11-23T16:28:50.186Z,88.63
2018-11-23T16:31:20.349Z,88.62
2018-11-23T16:33:50.919Z,88.58
2018-11-23T16:36:21.198Z,89.06
2018-11-23T16:38:51.196Z,88.67
2018-11-23T16:41:21.555Z,88.99
2018-11-23T16:43:51.603Z,88.90
2018-11-23T16:46:22.217Z,88.82
2018-11-23T16:48:53.067Z,88.90
2018-11-23T16:51:24.086Z,89.57
2018-11-23T16:53:54.168Z,89.38
2018-11-23T16:56:24.616Z,89.22
2018-11-23T16:58:54.801Z,89.56
2018-11-23T17:01:25.810Z,89.81
2018-11-23T17:03:56.457Z,90.13
2018-11-23T17:06:26.951Z,90.24
2018-11-23T17:08:56.940Z,90.27
2018-11-23T17:11:27.170Z,90.37
2018-11-23T17:13:57.182Z,90.88
2018-11-23T17:16:27.470Z,90.95
2018-11-23T17:18:57.880Z,90.87
2018-11-23T17:21:28.593Z,90.49
2018-11-23T17:23:58.595Z,90.52
2018-11-23T17:26:28.955Z,90.58
2018-11-23T17:28:58.953Z,90.21
2018-11-23T17:31:29.184Z,90.37
2018-11-23T17:33:59.178Z,90.38
2018-11-23T17:36:29.909Z,90.56
2018-11-23T17:39:00.363Z,90.15
2018-11-23T17:41:30.452Z,90.74
2018-11-23T17:44:01.078Z,90.32
2018-11-23T17:46:31.442Z,90.51
2018-11-23T17:49:02.315Z,90.58
2018-11-23T17:51:32.744Z,90.16
2018-11-23T17:54:02.778Z,90.47
2018-11-23T17:56:32.805Z,90.23
2018-11-23T17:59:03.074Z,90.43
2018-11-23T18:01:33.582Z,90.76
2018-11-23T18:04:04.011Z,90.54
2018-11-23T18:06:34.223Z,90.90
2018-11-23T18:09:10.297Z,91.13
2018-11-23T18:11:46.420Z,91.18
2018-11-23T18:14:22.387Z,90.72
2018-11-23T18:16:58.058Z,90.79
2018-11-23T18:19:38.168Z,91.16
2018-11-23T18:22:14.159Z,91.12
2018-11-23T18:24:49.983Z,91.01
2018-11-23T18:27:33.575Z,91.07
2018-11-23T18:30:10.481Z,91.10
2018-11-23T18:32:46.341Z,90.94
2018-11-23T18:35:16.618Z,91.13
2018-11-23T18:37:52.537Z,90.83
2018-11-23T18:40:22.911Z,90.91
2018-11-23T18:42:54.407Z,91.06
2018-11-23T18:45:24.927Z,91.36
2018-11-23T18:47:54.937Z,91.02
2018-11-23T18:50:25.542Z,90.77
2018-11-23T18:52:56.101Z,90.87
2018-11-23T18:55:27.234Z,91.13
2018-11-23T18:57:57.411Z,90.76
2018-11-23T19:00:27.419Z,90.55
2018-11-23T19:02:57.542Z,91.01
2018-11-23T19:05:28.387Z,90.91
2018-11-23T19:07:59.065Z,90.94
2018-11-23T19:10:29.790Z,91.16
2018-11-23T19:13:00.222Z,91.13
2018-11-23T19:15:32.207Z,91.28
2018-11-23T19:18:02.601Z,91.21
2018-11-23T19:20:32.930Z,91.17
2018-11-23T19:23:03.210Z,91.28
2018-11-23T19:25:34.446Z,91.28
2018-11-23T19:28:05.023Z,91.42
2018-11-23T19:30:35.808Z,91.49
2018-11-23T19:33:06.333Z,91.18
2018-11-23T19:35:36.555Z,90.89
2018-11-23T19:38:07.203Z,91.51
2018-11-23T19:40:37.822Z,91.20
2018-11-23T19:43:07.900Z,91.28
2018-11-23T19:45:38.033Z,91.48
2018-11-23T19:48:08.291Z,91.04
2018-11-23T19:50:42.574Z,91.31
2018-11-23T19:53:13.265Z,91.54
2018-11-23T19:55:47.627Z,91.70
2018-11-23T19:58:17.887Z,91.41
2018-11-23T20:00:48.212Z,91.27
2018-11-23T20:03:18.504Z,91.59
2018-11-23T20:05:49.138Z,91.60
2018-11-23T20:08:20.167Z,91.80
2018-11-23T20:10:50.890Z,91.58
2018-11-23T20:13:21.154Z,91.53
2018-11-23T20:15:51.377Z,91.63
2018-11-23T20:18:21.362Z,91.10
2018-11-23T20:20:52.457Z,91.25
2018-11-23T20:23:22.432Z,91.37
2018-11-23T20:25:52.490Z,91.48
2018-11-23T20:28:22.454Z,91.45
2018-11-23T20:30:53.343Z,91.39
2018-11-23T20:33:23.419Z,91.12
2018-11-23T20:35:54.036Z,91.04
2018-11-23T20:38:25.055Z,90.59
2018-11-23T20:40:55.042Z,90.89
2018-11-23T20:43:25.374Z,91.12
2018-11-23T20:45:55.703Z,90.95
2018-11-23T20:48:27.061Z,91.11
2018-11-23T20:50:57.111Z,91.29
2018-11-23T20:53:27.922Z,91.37
2018-11-23T20:55:58.040Z,91.38
2018-11-23T20:58:28.772Z,91.34
2018-11-23T21:00:58.781Z,91.47
2018-11-23T21:03:28.929Z,91.37
2018-11-23T21:05:58.931Z,91.38
2018-11-23T21:08:29.164Z,91.18
2018-11-23T21:10:59.833Z,91.22
2018-11-23T21:13:30.165Z,91.56
2018-11-23T21:16:00.306Z,91.35
2018-11-23T21:18:30.320Z,91.40
2018-11-23T21:21:00.552Z,91.49
2018-11-23T21:23:31.147Z,91.58
2018-11-23T21:26:01.292Z,91.26
2018-11-23T21:28:31.858Z,91.09
2018-11-23T21:31:02.614Z,91.29
2018-11-23T21:33:32.776Z,91.22
2018-11-23T21:36:03.541Z,91.63
2018-11-23T21:38:33.926Z,91.64
2018-11-23T21:41:04.018Z,91.35
2018-11-23T21:43:34.201Z,91.33
2018-11-23T21:46:05.576Z,91.23
2018-11-23T21:48:35.692Z,91.68
2018-11-23T21:51:06.692Z,91.65
2018-11-23T21:53:37.734Z,91.31
2018-11-23T21:56:09.469Z,91.47
2018-11-23T21:58:38.497Z,91.32
2018-11-23T22:01:08.748Z,91.32
2018-11-23T22:03:39.549Z,91.10
2018-11-23T22:06:10.604Z,91.04
2018-11-23T22:08:41.379Z,91.37
2018-11-23T22:11:11.507Z,91.42
2018-11-23T22:13:42.350Z,91.52
2018-11-23T22:16:13.002Z,91.50
2018-11-23T22:18:44.105Z,91.60
2018-11-23T22:21:14.066Z,91.68
2018-11-23T22:23:44.568Z,91.73
2018-11-23T22:26:15.705Z,91.28
2018-11-23T22:28:46.021Z,91.84
2018-11-23T22:31:16.463Z,91.82
2018-11-23T22:33:47.354Z,91.80
2018-11-23T22:36:17.444Z,94.75
2018-11-23T22:38:47.658Z,94.71
2018-11-23T22:41:18.035Z,94.17
2018-11-23T22:43:49.463Z,93.09
2018-11-23T22:46:21.112Z,92.70
2018-11-23T22:48:51.323Z,92.62
2018-11-23T22:51:21.800Z,92.79
2018-11-23T22:53:53.364Z,92.49
2018-11-23T22:56:23.969Z,92.50
2018-11-23T22:58:56.217Z,92.46
2018-11-23T23:01:28.399Z,92.20
2018-11-23T23:03:59.673Z,92.27
2018-11-23T23:06:30.705Z,91.94
2018-11-23T23:09:02.003Z,91.85
2018-11-23T23:11:33.045Z,91.79
2018-11-23T23:14:04.582Z,91.89
2018-11-23T23:16:36.022Z,92.06
2018-11-23T23:19:06.926Z,91.88
2018-11-23T23:21:37.980Z,91.63
2018-11-23T23:24:11.886Z,91.61
2018-11-23T23:26:40.977Z,91.81
2018-11-23T23:29:12.333Z,91.84
2018-11-23T23:31:42.354Z,92.00
2018-11-23T23:34:13.104Z,91.90
2018-11-23T23:36:45.431Z,92.48
2018-11-23T23:39:17.436Z,92.09
2018-11-23T23:41:48.014Z,91.95
2018-11-23T23:44:19.359Z,92.05
2018-11-23T23:46:50.675Z,92.16
2018-11-23T23:49:22.268Z,91.82
2018-11-23T23:51:52.906Z,91.71
2018-11-23T23:57:00.852Z,91.82
2018-11-23T23:59:35.593Z,91.56
